Time;durP1;ratioP1;P1;durP2;ratioP2;P2;SDS_P1;SDS_P2;PMS_P1;PMS_P2;Temp;Humidity;BMP_temperature;BMP_pressure;BME280_temperature;BME280_humidity;BME280_pressure;Samples;Min_cycle;Max_cycle;Signal;HPM_P1;HPM_P2
2022/06/09 00:00:02;;;;;;;18.85;15.03;;;;;;;16.19;92.51;99402.53;2795353;82;21061;-83
2022/06/09 00:04:13;;;;;;;18.00;15.58;;;;;;;16.22;93.18;99399.47;2790744;82;21017;-83
2022/06/09 00:08:16;;;;;;;17.48;14.13;;;;;;;16.31;93.29;99393.02;2846560;81;21005;-83
2022/06/09 00:12:17;;;;;;;17.23;14.68;;;;;;;16.42;92.97;99395.21;2837232;82;21434;-83
2022/06/09 00:16:20;;;;;;;14.87;13.32;;;;;;;16.52;91.64;99390.09;2855969;81;21073;-84
2022/06/09 00:20:21;;;;;;;18.10;14.95;;;;;;;16.33;92.61;99391.47;2832725;81;21016;-84
2022/06/09 00:24:23;;;;;;;16.05;14.13;;;;;;;16.21;93.99;99389.76;2850587;81;21073;-83
2022/06/09 00:28:24;;;;;;;17.65;14.15;;;;;;;16.11;95.12;99390.87;2856129;81;20994;-84
2022/06/09 00:32:25;;;;;;;17.75;15.88;;;;;;;16.08;94.49;99385.86;2860039;81;21021;-83
2022/06/09 00:36:26;;;;;;;18.35;14.68;;;;;;;16.13;94.62;99383.48;2838939;82;21100;-83
2022/06/09 00:40:28;;;;;;;16.17;13.45;;;;;;;16.27;93.95;99380.95;2826081;82;21119;-83
2022/06/09 00:44:30;;;;;;;17.80;15.18;;;;;;;16.34;92.05;99377.03;2831785;81;21072;-84
2022/06/09 00:48:39;;;;;;;18.80;15.88;;;;;;;16.29;89.79;99373.55;2844561;81;21539;-84
2022/06/09 00:52:45;;;;;;;20.55;14.47;;;;;;;16.25;89.03;99373.11;2841724;82;21092;-84
2022/06/09 00:56:57;;;;;;;26.35;17.30;;;;;;;16.15;90.64;99365.02;2840454;82;21567;-83
2022/06/09 01:01:03;;;;;;;25.77;18.15;;;;;;;16.14;91.69;99372.22;2853287;82;21051;-83
2022/06/09 01:05:06;;;;;;;22.70;16.85;;;;;;;16.17;93.13;99365.14;2822863;81;21045;-84
2022/06/09 01:09:15;;;;;;;23.87;18.95;;;;;;;16.17;92.80;99356.27;2862237;81;21045;-84
2022/06/09 01:13:19;;;;;;;22.67;17.62;;;;;;;16.19;93.89;99356.92;2838572;81;21069;-83
2022/06/09 01:18:07;;;;;;;20.77;18.57;;;;;;;16.20;94.06;99363.42;2844700;81;21055;-84
2022/06/09 01:22:38;;;;;;;28.25;20.23;;;;;;;16.23;94.13;99364.42;2845867;81;21052;-84
2022/06/09 01:27:22;;;;;;;25.27;18.80;;;;;;;16.24;93.34;99365.23;2836566;81;21029;-83
2022/06/09 01:31:46;;;;;;;23.70;19.95;;;;;;;16.16;92.82;99362.66;2865660;81;21144;-83
2022/06/09 01:36:14;;;;;;;23.75;21.25;;;;;;;16.08;93.42;99355.53;2837623;82;21022;-83
2022/06/09 01:40:18;;;;;;;23.65;18.50;;;;;;;16.08;94.09;99357.69;2845575;81;21176;-83
2022/06/09 01:44:20;;;;;;;21.55;17.82;;;;;;;16.08;93.62;99346.95;2841169;81;21033;-84
2022/06/09 01:48:25;;;;;;;21.15;17.85;;;;;;;16.12;93.41;99340.73;2842359;81;21038;-83
2022/06/09 01:52:27;;;;;;;22.60;16.37;;;;;;;16.10;92.57;99342.23;2831040;82;21014;-83
2022/06/09 01:56:40;;;;;;;15.55;13.13;;;;;;;16.13;91.78;99337.87;2821557;82;21026;-84
2022/06/09 02:00:43;;;;;;;19.95;15.45;;;;;;;16.19;90.32;99334.11;2833774;82;21033;-84
2022/06/09 02:04:49;;;;;;;20.45;16.52;;;;;;;16.17;88.40;99332.13;2847145;81;21715;-84
2022/06/09 02:08:51;;;;;;;20.37;15.03;;;;;;;16.06;85.63;99332.09;2832143;82;20990;-83
2022/06/09 02:12:52;;;;;;;16.73;13.08;;;;;;;15.80;84.00;99334.16;2839599;81;21285;-84
2022/06/09 02:16:55;;;;;;;19.73;14.13;;;;;;;15.63;85.01;99335.34;2801532;81;21036;-84
2022/06/09 02:21:04;;;;;;;16.23;12.70;;;;;;;15.58;85.98;99326.49;2839381;83;21036;-83
2022/06/09 02:25:07;;;;;;;17.35;14.15;;;;;;;15.45;85.38;99340.52;2796701;82;21707;-84
2022/06/09 02:29:09;;;;;;;21.12;14.70;;;;;;;15.18;86.66;99341.41;2828957;82;21090;-84
2022/06/09 02:33:10;;;;;;;16.25;13.03;;;;;;;15.20;88.10;99336.71;2801601;83;21048;-82
2022/06/09 02:37:11;;;;;;;18.85;14.13;;;;;;;15.30;88.72;99335.62;2844118;81;21050;-84
2022/06/09 02:41:13;;;;;;;14.53;11.88;;;;;;;15.39;88.49;99349.29;2849152;81;21120;-83
2022/06/09 02:45:16;;;;;;;16.80;12.75;;;;;;;15.44;88.42;99345.55;2831908;81;21587;-83
2022/06/09 02:49:19;;;;;;;15.83;12.43;;;;;;;15.44;88.25;99338.86;2846013;81;21010;-83
2022/06/09 02:53:22;;;;;;;17.55;13.93;;;;;;;15.36;88.14;99345.11;2852985;80;21069;-83
2022/06/09 02:57:23;;;;;;;19.10;15.10;;;;;;;15.34;88.75;99363.22;2777794;82;22300;-84
2022/06/09 03:01:27;;;;;;;20.12;16.40;;;;;;;15.33;89.50;99359.36;2830556;82;21013;-84
2022/06/09 03:05:30;;;;;;;21.75;19.37;;;;;;;15.23;89.52;99355.59;2834258;81;21069;-84
2022/06/09 03:09:31;;;;;;;19.80;15.63;;;;;;;15.13;90.39;99355.83;2826441;81;21043;-84
2022/06/09 03:13:33;;;;;;;17.82;15.15;;;;;;;15.22;90.39;99361.47;2826128;82;21307;-84
2022/06/09 03:17:35;;;;;;;18.60;15.20;;;;;;;15.26;90.73;99363.30;2835526;82;21569;-83
2022/06/09 03:21:36;;;;;;;27.73;14.68;;;;;;;15.30;89.68;99361.07;2793953;82;21612;-85
2022/06/09 03:25:37;;;;;;;24.00;14.93;;;;;;;15.22;91.28;99365.48;2815462;82;21062;-85
2022/06/09 03:29:38;;;;;;;17.05;13.95;;;;;;;15.13;91.78;99370.56;2858142;82;21048;-83
2022/06/09 03:33:39;;;;;;;14.68;11.93;;;;;;;15.25;91.89;99375.84;2860852;82;21612;-84
2022/06/09 03:37:41;;;;;;;21.35;16.07;;;;;;;15.36;90.96;99377.79;2828960;82;21069;-84
2022/06/09 03:41:42;;;;;;;21.02;16.60;;;;;;;15.49;91.29;99382.53;2779107;82;21045;-84
2022/06/09 03:45:43;;;;;;;21.35;15.00;;;;;;;15.64;90.64;99379.40;2781628;83;21007;-85
2022/06/09 03:49:45;;;;;;;25.80;17.30;;;;;;;15.64;88.32;99379.89;2788389;83;21652;-85
2022/06/09 03:53:46;;;;;;;22.85;15.85;;;;;;;15.62;88.33;99377.91;2832408;82;22444;-85
2022/06/09 03:57:47;;;;;;;20.08;13.62;;;;;;;15.64;88.04;99385.25;2844601;83;21573;-85
2022/06/09 04:01:49;;;;;;;33.85;15.60;;;;;;;15.65;89.75;99385.09;2795468;82;21026;-83
2022/06/09 04:05:50;;;;;;;25.62;15.68;;;;;;;15.70;91.18;99378.66;2814579;82;21506;-82
2022/06/09 04:09:52;;;;;;;32.60;16.02;;;;;;;15.81;91.78;99382.75;2824093;82;21039;-84
2022/06/09 04:13:53;;;;;;;29.82;17.10;;;;;;;15.87;91.93;99384.37;2832443;83;21038;-83
2022/06/09 04:17:54;;;;;;;27.15;16.73;;;;;;;16.03;92.41;99396.31;2827850;82;21090;-83
2022/06/09 04:21:55;;;;;;;22.87;17.73;;;;;;;16.17;92.14;99397.86;2779628;83;21038;-82
2022/06/09 04:25:56;;;;;;;26.37;20.17;;;;;;;16.14;92.77;99400.39;2820033;83;21031;-82
2022/06/09 04:29:58;;;;;;;23.55;20.08;;;;;;;16.02;94.20;99402.69;2835539;82;21030;-83
2022/06/09 04:33:59;;;;;;;29.70;20.12;;;;;;;16.01;95.72;99399.69;2793537;83;21692;-81
2022/06/09 04:38:00;;;;;;;41.73;22.80;;;;;;;16.15;96.62;99413.31;2803926;83;21517;-82
2022/06/09 04:42:01;;;;;;;37.95;22.35;;;;;;;16.32;96.33;99414.80;2850397;81;21611;-83
2022/06/09 04:46:04;;;;;;;41.92;23.30;;;;;;;16.41;96.60;99409.65;2857474;82;21029;-83
2022/06/09 04:50:07;;;;;;;33.90;23.85;;;;;;;16.54;97.28;99411.67;2835050;82;21058;-83
2022/06/09 04:54:08;;;;;;;40.92;27.30;;;;;;;16.74;97.66;99404.91;2851472;81;21108;-82
2022/06/09 04:58:10;;;;;;;29.77;23.50;;;;;;;16.94;97.39;99419.41;2843768;82;21095;-83
2022/06/09 05:02:11;;;;;;;30.20;22.10;;;;;;;17.15;97.93;99429.89;2841588;82;21025;-82
2022/06/09 05:06:12;;;;;;;35.45;24.00;;;;;;;17.32;96.90;99427.80;2838091;82;21002;-83
2022/06/09 05:10:14;;;;;;;27.82;21.48;;;;;;;17.49;96.44;99414.95;2832551;81;21053;-83
2022/06/09 05:14:15;;;;;;;32.40;22.50;;;;;;;17.59;95.77;99416.47;2833413;82;21130;-83
2022/06/09 05:18:20;;;;;;;34.63;22.80;;;;;;;17.69;96.60;99422.36;2838839;82;21108;-82
2022/06/09 05:22:21;;;;;;;24.00;19.40;;;;;;;17.88;96.64;99426.73;2836501;81;21013;-83
2022/06/09 05:26:22;;;;;;;30.10;22.15;;;;;;;18.04;96.09;99425.12;2859631;81;21869;-83
2022/06/09 05:30:25;;;;;;;34.85;25.60;;;;;;;18.18;96.10;99433.30;2833403;81;21363;-83
2022/06/09 05:34:26;;;;;;;27.55;22.02;;;;;;;18.27;95.49;99434.30;2871535;81;21059;-83
2022/06/09 05:47:08;;;;;;;26.65;20.80;;;;;;;18.25;94.34;99458.39;2608231;88;21113;-83
2022/06/09 05:51:11;;;;;;;20.17;17.55;;;;;;;18.10;95.05;99462.04;2658603;88;21115;-83
2022/06/09 05:55:12;;;;;;;26.87;22.00;;;;;;;18.08;93.94;99456.52;2649845;87;21108;-83
2022/06/09 05:59:14;;;;;;;30.12;22.80;;;;;;;18.06;94.09;99458.05;2630667;88;21605;-83
2022/06/09 06:03:17;;;;;;;33.30;19.12;;;;;;;18.10;93.94;99450.43;2644208;90;21066;-83
2022/06/09 06:07:18;;;;;;;19.87;17.75;;;;;;;18.11;94.02;99454.28;2667692;88;21104;-83
2022/06/09 06:11:19;;;;;;;22.62;17.77;;;;;;;18.15;94.01;99465.47;2628983;86;21094;-83
2022/06/09 06:15:21;;;;;;;21.05;17.80;;;;;;;18.20;94.20;99458.16;2853195;82;21014;-83
2022/06/09 06:19:23;;;;;;;19.23;17.10;;;;;;;18.16;93.38;99463.62;2835575;82;21029;-83
2022/06/09 06:23:25;;;;;;;22.98;17.52;;;;;;;18.23;94.29;99463.14;2835400;82;21069;-83
2022/06/09 06:27:26;;;;;;;26.52;17.77;;;;;;;18.36;93.94;99463.25;2865501;82;21054;-83
2022/06/09 06:31:27;;;;;;;24.65;17.27;;;;;;;18.46;94.22;99468.78;2863164;81;21041;-83
2022/06/09 06:35:28;;;;;;;22.45;16.57;;;;;;;18.62;94.45;99461.73;2853962;82;21044;-83
2022/06/09 06:39:29;;;;;;;18.60;16.62;;;;;;;18.81;92.75;99466.92;2857967;81;21041;-83
2022/06/09 06:43:31;;;;;;;20.65;16.57;;;;;;;19.08;93.06;99466.23;2861971;81;20998;-83
2022/06/09 06:47:32;;;;;;;18.35;16.05;;;;;;;19.32;91.37;99472.11;2873629;81;20994;-83
2022/06/09 06:51:33;;;;;;;21.20;14.80;;;;;;;19.45;90.81;99480.21;2853526;81;20993;-83
2022/06/09 06:55:34;;;;;;;17.55;15.55;;;;;;;19.52;89.40;99479.73;2872066;82;21061;-83
2022/06/09 06:59:35;;;;;;;24.23;15.53;;;;;;;19.64;89.97;99475.06;2871259;82;21002;-83
2022/06/09 07:03:37;;;;;;;14.87;13.03;;;;;;;19.74;90.39;99477.35;2769821;82;21525;-83
2022/06/09 07:07:40;;;;;;;17.73;13.43;;;;;;;19.82;89.18;99466.38;2861101;81;21536;-83
2022/06/09 07:11:43;;;;;;;38.50;12.15;;;;;;;19.82;88.56;99478.52;2841916;82;21056;-83
2022/06/09 07:15:44;;;;;;;21.42;12.50;;;;;;;19.72;88.48;99476.23;2834965;81;21022;-83
2022/06/09 07:19:46;;;;;;;19.42;13.43;;;;;;;19.76;89.05;99481.52;2909914;80;21536;-83
2022/06/09 07:23:47;;;;;;;19.92;13.62;;;;;;;19.69;87.31;99484.20;2887947;81;21543;-83
2022/06/09 07:27:49;;;;;;;18.82;13.58;;;;;;;19.70;88.72;99483.16;2874421;81;21017;-84
2022/06/09 07:31:50;;;;;;;22.95;15.58;;;;;;;19.75;88.25;99484.41;2918429;81;20986;-83
2022/06/09 07:35:53;;;;;;;18.95;15.85;;;;;;;19.78;88.45;99482.67;2906978;80;21100;-83
2022/06/09 07:39:54;;;;;;;19.23;15.90;;;;;;;19.76;88.55;99490.96;2845571;81;21054;-83
2022/06/09 07:43:56;;;;;;;22.00;15.13;;;;;;;19.95;88.71;99493.91;2839537;82;21595;-83
2022/06/09 07:47:58;;;;;;;19.55;16.75;;;;;;;20.15;88.75;99495.78;2802963;82;21104;-83
2022/06/09 07:52:00;;;;;;;21.23;17.27;;;;;;;20.30;87.06;99504.50;2843683;81;21085;-84
2022/06/09 07:56:01;;;;;;;28.52;20.10;;;;;;;20.46;86.35;99519.97;2852481;82;21073;-83
2022/06/09 08:00:07;;;;;;;24.82;19.92;;;;;;;20.67;86.63;99512.13;2844814;81;21045;-83
2022/06/09 08:04:08;;;;;;;24.30;19.45;;;;;;;20.89;86.27;99517.30;2818323;81;21893;-83
2022/06/09 08:08:09;;;;;;;22.37;15.15;;;;;;;21.02;85.29;99519.96;2852750;81;21081;-83
2022/06/09 08:12:10;;;;;;;16.05;10.25;;;;;;;21.15;85.32;99524.48;2841704;81;21065;-83
2022/06/09 08:16:12;;;;;;;11.63;9.53;;;;;;;21.19;83.31;99527.60;2841932;81;21080;-84
2022/06/09 08:20:14;;;;;;;11.00;9.13;;;;;;;21.18;82.82;99528.11;2838898;81;21005;-83
2022/06/09 08:24:16;;;;;;;10.30;9.13;;;;;;;21.17;83.08;99537.27;2789805;82;21038;-83
2022/06/09 08:28:18;;;;;;;12.70;8.18;;;;;;;21.34;84.03;99544.90;2862116;82;21038;-83
2022/06/09 08:32:19;;;;;;;9.70;8.70;;;;;;;21.72;83.17;99544.64;2801712;82;21077;-83
2022/06/09 08:36:21;;;;;;;9.40;7.62;;;;;;;22.07;82.46;99536.90;2845416;81;21065;-83
2022/06/09 08:40:31;;;;;;;8.88;7.95;;;;;;;22.43;77.04;99526.92;2843020;82;21034;-83
2022/06/09 08:44:46;;;;;;;7.40;6.35;;;;;;;22.92;77.10;99518.40;2848625;82;21086;-82
2022/06/09 08:48:50;;;;;;;6.35;5.42;;;;;;;22.99;72.19;99513.41;2845895;82;21014;-83
2022/06/09 08:53:18;;;;;;;8.63;5.72;;;;;;;22.90;72.53;99516.44;2838002;83;21557;-83
2022/06/09 08:57:25;;;;;;;10.40;5.33;;;;;;;22.75;71.58;99518.69;2818002;82;21023;-83
2022/06/09 09:01:52;;;;;;;6.00;5.05;;;;;;;22.76;72.27;99528.48;2822924;82;21003;-83
2022/06/09 09:06:11;;;;;;;5.12;4.62;;;;;;;22.75;72.56;99530.89;2818017;83;21153;-84
2022/06/09 09:10:23;;;;;;;6.90;6.00;;;;;;;23.14;71.35;99540.98;2808125;82;21015;-83
2022/06/09 09:14:33;;;;;;;7.10;5.20;;;;;;;23.37;69.16;99544.91;2831557;83;21070;-83
2022/06/09 09:18:45;;;;;;;6.65;6.03;;;;;;;23.38;70.23;99556.89;2714467;86;21113;-82
2022/06/09 09:23:13;;;;;;;4.62;3.80;;;;;;;23.42;70.36;99553.72;2692398;87;21196;-83
2022/06/09 09:27:44;;;;;;;6.53;5.40;;;;;;;23.39;69.70;99548.24;2690421;87;21058;-83
2022/06/09 09:32:00;;;;;;;6.75;4.60;;;;;;;23.72;70.00;99548.84;2696418;86;21141;-82
2022/06/09 09:36:27;;;;;;;7.17;4.90;;;;;;;23.90;68.36;99561.52;2685951;88;21140;-83
2022/06/09 09:40:39;;;;;;;5.15;4.62;;;;;;;24.23;67.16;99558.85;2672646;87;21102;-82
2022/06/09 09:44:42;;;;;;;8.63;4.83;;;;;;;24.44;67.33;99566.14;2715809;85;21063;-83
2022/06/09 09:48:44;;;;;;;7.37;5.30;;;;;;;24.42;65.95;99560.11;2755468;84;21469;-84
2022/06/09 09:52:50;;;;;;;5.65;4.55;;;;;;;24.62;67.28;99564.67;2742964;86;22396;-82
2022/06/09 09:57:15;;;;;;;4.90;4.37;;;;;;;24.47;66.56;99565.66;2827174;82;21037;-83
2022/06/09 10:01:27;;;;;;;5.60;4.67;;;;;;;24.46;64.45;99568.09;2915115;81;20990;-83
2022/06/09 10:09:54;;;;;;;6.90;5.58;;;;;;;24.59;66.54;99581.97;2909776;80;21002;-83
2022/06/09 10:14:00;;;;;;;5.75;4.90;;;;;;;24.23;66.46;99581.95;2896243;80;21113;-83
2022/06/09 10:18:09;;;;;;;6.28;5.45;;;;;;;24.13;67.46;99577.09;2913737;80;21045;-83
2022/06/09 10:22:20;;;;;;;7.30;5.87;;;;;;;24.02;68.01;99575.16;2898388;80;21006;-83
2022/06/09 10:26:30;;;;;;;6.17;5.70;;;;;;;23.84;67.42;99578.74;2914410;80;21029;-83
2022/06/09 10:30:39;;;;;;;6.97;6.17;;;;;;;23.69;68.62;99578.62;2891914;80;21030;-83
2022/06/09 10:34:57;;;;;;;6.97;6.28;;;;;;;23.64;68.67;99571.16;2882755;81;21037;-83
2022/06/09 10:39:21;;;;;;;7.15;6.12;;;;;;;23.59;69.17;99579.72;2905850;80;21018;-82
2022/06/09 10:43:30;;;;;;;6.50;5.75;;;;;;;23.41;71.63;99586.83;2909728;80;21416;-83
2022/06/09 10:56:44;;;;;;;9.05;6.97;;;;;;;23.75;71.35;99593.98;2812332;82;21234;-83
2022/06/09 11:00:50;;;;;;;7.28;5.72;;;;;;;23.73;71.31;99596.65;2825077;83;21105;-84
2022/06/09 11:04:52;;;;;;;13.32;6.42;;;;;;;23.61;71.79;99592.53;2803155;83;21127;-83
2022/06/09 11:09:34;;;;;;;5.95;5.22;;;;;;;23.59;71.90;99594.10;2828141;82;21063;-84
2022/06/09 11:13:49;;;;;;;5.35;4.67;;;;;;;23.65;71.78;99597.79;2830271;83;21095;-83
2022/06/09 11:18:03;;;;;;;;;;;;;;;23.60;72.73;99596.30;2811285;83;21015;-83
2022/06/09 11:22:35;;;;;;;6.17;5.65;;;;;;;23.39;72.31;99597.09;2816983;83;20163;-83
2022/06/09 11:26:48;;;;;;;7.20;5.70;;;;;;;23.23;72.28;99593.89;2833784;82;21059;-83
2022/06/09 11:31:24;;;;;;;28.10;7.10;;;;;;;23.16;73.57;99588.23;2859391;81;21042;-83
2022/06/09 11:35:40;;;;;;;8.65;5.15;;;;;;;23.11;74.69;99579.41;2881572;81;21022;-83
2022/06/09 11:40:02;;;;;;;6.45;5.10;;;;;;;23.03;74.76;99587.32;2882927;80;21553;-83
2022/06/09 11:44:32;;;;;;;6.22;5.67;;;;;;;23.32;73.97;99582.75;2896320;81;21003;-84
2022/06/09 11:48:41;;;;;;;7.95;5.60;;;;;;;23.51;73.05;99589.81;2850085;81;21093;-82
2022/06/09 11:52:47;;;;;;;5.85;4.33;;;;;;;23.61;71.80;99591.17;2820936;82;21065;-83
2022/06/09 11:56:52;;;;;;;4.47;4.08;;;;;;;23.81;72.91;99587.66;2840374;82;21087;-83
2022/06/09 12:00:54;;;;;;;5.58;4.85;;;;;;;24.23;72.12;99594.17;2840656;81;21049;-83
2022/06/09 12:05:23;;;;;;;12.23;5.60;;;;;;;24.43;69.29;99591.11;2836674;82;21010;-82
2022/06/09 12:10:04;;;;;;;4.85;4.28;;;;;;;24.67;68.79;99593.33;2839114;81;21057;-83
2022/06/09 12:14:34;;;;;;;5.12;4.70;;;;;;;24.76;67.96;99592.47;2815648;81;21030;-83
2022/06/09 12:18:40;;;;;;;7.45;5.17;;;;;;;24.78;67.50;99596.33;2860624;81;21006;-83
2022/06/09 12:22:47;;;;;;;9.13;4.60;;;;;;;24.83;68.36;99601.03;2800284;81;20993;-83
2022/06/09 12:27:13;;;;;;;5.12;4.72;;;;;;;24.81;67.26;99604.00;2862359;82;21061;-83
2022/06/09 12:31:22;;;;;;;4.30;3.87;;;;;;;24.97;68.86;99613.33;2813896;81;21030;-83
2022/06/09 12:35:37;;;;;;;4.65;4.25;;;;;;;25.32;68.61;99611.61;2835740;82;21064;-83
2022/06/09 12:39:43;;;;;;;5.47;4.97;;;;;;;25.69;64.82;99605.85;2840152;82;21073;-83
2022/06/09 12:43:56;;;;;;;5.85;5.00;;;;;;;25.79;64.79;99597.89;2839427;81;21121;-84
2022/06/09 12:48:14;;;;;;;6.30;5.65;;;;;;;25.88;64.81;99605.66;2861417;82;21057;-84
2022/06/09 12:52:40;;;;;;;5.37;4.92;;;;;;;25.87;65.24;99602.12;2860490;81;21050;-83
2022/06/09 12:56:47;;;;;;;5.33;4.83;;;;;;;25.94;65.22;99609.59;2811547;82;21042;-83
2022/06/09 13:01:00;;;;;;;10.40;6.12;;;;;;;26.01;64.30;99605.36;2831667;81;21074;-83
2022/06/09 13:05:27;;;;;;;5.40;4.90;;;;;;;26.04;64.50;99608.11;2823702;82;21066;-82
2022/06/09 13:09:33;;;;;;;7.30;5.53;;;;;;;26.13;64.04;99608.02;2849285;82;21149;-82
2022/06/09 13:13:43;;;;;;;5.00;4.50;;;;;;;26.08;64.50;99603.30;2773525;84;21014;-83
2022/06/09 13:17:44;;;;;;;5.72;4.90;;;;;;;26.08;63.99;99612.83;2822042;82;21065;-82
2022/06/09 13:21:48;;;;;;;5.83;5.33;;;;;;;25.84;62.91;99612.11;2818763;81;21108;-83
2022/06/09 13:25:49;;;;;;;5.85;5.25;;;;;;;25.66;63.44;99621.31;2812747;81;21006;-83
2022/06/09 13:29:59;;;;;;;5.08;4.67;;;;;;;25.67;63.81;99617.52;2831450;82;21027;-83
2022/06/09 13:34:11;;;;;;;8.20;4.55;;;;;;;25.58;64.33;99620.35;2823914;82;20990;-82
2022/06/09 13:38:32;;;;;;;5.75;5.17;;;;;;;25.38;64.10;99612.84;2824484;82;21577;-82
2022/06/09 13:42:56;;;;;;;5.53;5.05;;;;;;;25.30;64.40;99616.47;2805390;82;21062;-86
2022/06/09 13:47:17;;;;;;;5.95;5.28;;;;;;;25.26;66.08;99611.22;2751558;84;21073;-85
2022/06/09 13:51:26;;;;;;;6.12;5.58;;;;;;;25.29;67.01;99612.09;2805127;83;21022;-84
2022/06/09 13:55:27;;;;;;;6.45;5.10;;;;;;;25.13;67.69;99612.31;2815762;82;21057;-93
2022/06/09 13:59:29;;;;;;;9.78;5.17;;;;;;;25.02;67.52;99612.07;2791734;83;21078;-89
2022/06/09 14:03:34;;;;;;;8.23;5.08;;;;;;;25.02;67.36;99611.27;2827909;83;20971;-85
2022/06/09 14:07:36;;;;;;;5.95;4.15;;;;;;;25.06;66.46;99608.35;2807838;83;21018;-85
2022/06/09 14:11:37;;;;;;;4.80;4.00;;;;;;;25.21;66.06;99607.84;2815733;83;21050;-84
2022/06/09 14:15:41;;;;;;;6.70;3.17;;;;;;;25.23;66.05;99606.55;2779910;83;20999;-84
2022/06/09 14:19:42;;;;;;;2.08;1.77;;;;;;;25.08;66.10;99601.62;2824850;79;21034;-85
2022/06/09 14:23:44;;;;;;;3.40;1.80;;;;;;;24.87;66.24;99592.72;2811247;82;21066;-84
2022/06/09 14:27:45;;;;;;;5.22;3.15;;;;;;;24.57;65.96;99616.20;2810504;83;21018;-84
2022/06/09 14:31:47;;;;;;;11.70;2.90;;;;;;;24.58;67.26;99621.09;2781187;84;21057;-84
2022/06/09 14:35:49;;;;;;;2.83;2.62;;;;;;;24.61;67.03;99629.63;2777071;84;20999;-84
2022/06/09 14:39:51;;;;;;;15.60;3.92;;;;;;;24.46;65.39;99645.55;2716036;83;21097;-84
2022/06/09 14:43:52;;;;;;;6.03;2.98;;;;;;;24.35;65.95;99645.27;2817716;82;21064;-84
2022/06/09 14:47:53;;;;;;;3.35;3.05;;;;;;;24.28;65.57;99653.27;2825943;82;21026;-84
2022/06/09 14:51:55;;;;;;;4.00;3.33;;;;;;;24.24;65.58;99651.53;2827373;82;20998;-83
2022/06/09 14:55:56;;;;;;;4.47;2.42;;;;;;;24.10;66.05;99659.05;2851533;82;21053;-85
2022/06/09 14:59:57;;;;;;;3.75;3.27;;;;;;;24.04;66.94;99670.30;2770937;82;21026;-85
2022/06/09 15:03:58;;;;;;;4.12;2.42;;;;;;;23.96;66.12;99674.64;2818470;82;21297;-85
2022/06/09 15:07:59;;;;;;;11.30;3.08;;;;;;;23.92;66.88;99684.31;2866804;81;21033;-85
2022/06/09 15:12:01;;;;;;;3.55;2.70;;;;;;;23.90;67.31;99686.44;2826721;82;21085;-85
2022/06/09 15:16:02;;;;;;;2.08;1.70;;;;;;;23.88;67.77;99692.62;2777304;84;21013;-85
2022/06/09 15:20:05;;;;;;;5.45;2.83;;;;;;;23.84;68.16;99692.79;2765935;84;21049;-85
2022/06/09 15:24:07;;;;;;;2.22;1.85;;;;;;;23.80;67.80;99700.55;2851506;81;21033;-85
2022/06/09 15:28:11;;;;;;;3.05;2.72;;;;;;;23.77;68.10;99697.75;2853765;80;21560;-85
2022/06/09 15:32:12;;;;;;;3.65;2.47;;;;;;;23.68;68.37;99705.92;2890971;81;20985;-86
2022/06/09 15:36:22;;;;;;;5.15;2.40;;;;;;;23.54;68.89;99708.78;2896737;80;21010;-85
2022/06/09 15:40:28;;;;;;;2.85;2.00;;;;;;;23.56;69.53;99712.63;2891462;81;21041;-85
2022/06/09 15:44:32;;;;;;;4.28;2.22;;;;;;;23.52;68.88;99722.29;2861467;81;21439;-85
2022/06/09 15:48:32;;;;;;;3.37;1.32;;;;;;;23.43;68.44;99727.19;2859499;80;21156;-85
2022/06/09 15:52:33;;;;;;;2.80;1.90;;;;;;;23.35;67.12;99731.53;2893040;80;20998;-85
2022/06/09 15:56:35;;;;;;;1.67;1.10;;;;;;;23.35;65.89;99728.81;2913000;81;21041;-83
2022/06/09 16:00:37;;;;;;;3.30;1.10;;;;;;;23.23;66.08;99737.67;2894444;80;21056;-85
2022/06/09 16:04:42;;;;;;;5.55;1.70;;;;;;;23.27;66.32;99738.61;2903967;81;21043;-83
2022/06/09 16:08:43;;;;;;;5.05;1.85;;;;;;;23.14;66.58;99746.31;2883225;81;21038;-85
2022/06/09 16:12:45;;;;;;;1.55;1.45;;;;;;;23.14;66.44;99757.98;2886698;80;21395;-85
2022/06/09 16:16:46;;;;;;;2.00;1.67;;;;;;;23.05;67.08;99764.21;2887198;81;21018;-86
2022/06/09 16:20:49;;;;;;;7.22;2.62;;;;;;;23.09;66.92;99767.31;2916720;80;21025;-85
2022/06/09 16:24:51;;;;;;;11.73;2.80;;;;;;;23.04;67.38;99773.40;2889031;80;21050;-86
2022/06/09 16:28:52;;;;;;;2.00;1.27;;;;;;;22.97;67.41;99775.34;2894976;81;21017;-85
2022/06/09 16:32:53;;;;;;;3.65;1.90;;;;;;;22.93;68.05;99776.84;2873796;80;21006;-85
2022/06/09 16:36:54;;;;;;;10.95;2.50;;;;;;;22.90;68.37;99784.06;2889310;81;21018;-85
2022/06/09 16:40:55;;;;;;;3.37;2.02;;;;;;;22.91;68.91;99790.61;2884025;80;21037;-85
2022/06/09 16:44:56;;;;;;;2.30;1.90;;;;;;;22.94;68.86;99796.94;2884290;80;21081;-85
2022/06/09 16:48:58;;;;;;;3.22;2.22;;;;;;;22.91;69.29;99797.92;2895973;80;21014;-85
2022/06/09 16:53:05;;;;;;;2.12;1.52;;;;;;;22.89;69.82;99810.84;2900719;80;21049;-85
2022/06/09 16:57:07;;;;;;;4.62;1.77;;;;;;;22.89;70.02;99813.05;2887187;81;21040;-85
2022/06/09 17:01:08;;;;;;;5.00;2.22;;;;;;;22.89;70.71;99819.83;2893445;80;21081;-86
2022/06/09 17:05:11;;;;;;;3.45;2.25;;;;;;;22.79;71.83;99826.23;2881991;80;21006;-85
2022/06/09 17:09:12;;;;;;;5.40;2.83;;;;;;;22.70;72.38;99827.56;2887357;81;21052;-87
2022/06/09 17:13:14;;;;;;;2.35;2.05;;;;;;;22.63;72.73;99833.86;2872473;80;21026;-95
2022/06/09 17:17:16;;;;;;;3.25;2.62;;;;;;;22.54;73.01;99837.84;2882146;81;21066;-92
2022/06/09 17:21:20;;;;;;;3.50;2.80;;;;;;;22.46;72.71;99834.83;2882446;81;21058;-92
2022/06/09 17:25:21;;;;;;;2.50;2.30;;;;;;;22.41;73.60;99845.48;2882835;80;21029;-90
2022/06/09 17:29:22;;;;;;;2.67;2.17;;;;;;;22.32;74.01;99844.89;2897192;81;21042;-88
2022/06/09 17:33:24;;;;;;;4.53;2.00;;;;;;;22.28;73.88;99857.72;2874209;81;21516;-87
2022/06/09 17:37:25;;;;;;;2.25;1.82;;;;;;;22.18;74.07;99861.72;2918839;81;21644;-89
2022/06/09 17:41:26;;;;;;;1.95;1.82;;;;;;;22.13;74.29;99862.89;2918792;81;21073;-86
2022/06/09 17:45:28;;;;;;;3.50;2.25;;;;;;;22.04;74.26;99860.09;2872141;81;21604;-88
2022/06/09 17:49:30;;;;;;;6.75;2.25;;;;;;;22.00;74.26;99865.08;2849283;81;21541;-94
2022/06/09 17:53:32;;;;;;;2.33;1.80;;;;;;;22.02;74.42;99864.37;2832912;81;21006;-86
2022/06/09 17:57:33;;;;;;;2.40;1.70;;;;;;;22.01;74.92;99864.07;2895502;81;21002;-86
2022/06/09 18:01:36;;;;;;;3.27;2.55;;;;;;;21.99;75.31;99866.13;2877340;81;21037;-85
2022/06/09 18:05:38;;;;;;;2.55;2.10;;;;;;;21.99;74.84;99881.56;2824564;82;21034;-87
2022/06/09 18:09:39;;;;;;;5.58;2.62;;;;;;;22.00;75.36;99887.28;2839415;81;21017;-85
2022/06/09 18:13:43;;;;;;;4.50;2.65;;;;;;;21.94;75.53;99889.80;2842688;81;20998;-89
2022/06/09 18:17:47;;;;;;;3.02;2.42;;;;;;;21.90;75.69;99894.48;2866138;82;21053;-89
2022/06/09 18:21:48;;;;;;;3.25;2.08;;;;;;;21.83;76.56;99902.11;2871199;81;21041;-90
2022/06/09 18:25:54;;;;;;;2.70;2.40;;;;;;;21.68;77.93;99910.95;2870716;81;20962;-89
2022/06/09 18:29:54;;;;;;;6.13;2.60;;;;;;;21.55;78.62;99918.52;2832287;82;22122;-91
2022/06/09 18:33:56;;;;;;;2.80;2.45;;;;;;;21.39;79.66;99924.64;2870442;81;21027;-88
2022/06/09 18:37:59;;;;;;;4.45;2.72;;;;;;;21.31;79.44;99929.41;2874689;81;21010;-94
2022/06/09 18:42:00;;;;;;;9.93;3.27;;;;;;;21.18;80.06;99932.39;2823946;82;21033;-87
2022/06/09 18:46:02;;;;;;;3.95;2.25;;;;;;;20.94;81.90;99937.86;2807197;83;21033;-86
2022/06/09 18:50:07;;;;;;;2.60;2.05;;;;;;;20.87;82.48;99948.64;2803909;83;20994;-86
2022/06/09 18:54:09;;;;;;;6.33;2.75;;;;;;;20.72;82.50;99954.67;2767556;85;20975;-88
2022/06/09 18:58:13;;;;;;;1.75;1.57;;;;;;;20.60;83.38;99964.69;2796873;83;21027;-91
2022/06/09 19:02:15;;;;;;;4.05;1.47;;;;;;;20.41;84.10;99968.43;2820520;83;21089;-85
2022/06/09 19:06:21;;;;;;;1.82;1.25;;;;;;;20.27;84.34;99974.80;2796921;83;20994;-86
2022/06/09 19:10:23;;;;;;;1.85;1.22;;;;;;;20.06;85.30;99980.58;2791507;84;21580;-87
2022/06/09 19:14:24;;;;;;;3.02;1.12;;;;;;;19.87;86.09;99990.66;2811238;83;21074;-89
2022/06/09 19:18:28;;;;;;;2.10;1.32;;;;;;;19.76;86.22;99990.67;2806075;84;20991;-84
2022/06/09 19:22:30;;;;;;;1.40;1.35;;;;;;;19.72;85.86;99998.30;2815944;83;21054;-85
2022/06/09 19:26:33;;;;;;;2.20;1.55;;;;;;;19.70;85.80;100003.88;2815573;83;21006;-84